createdAt,value
2023-05-24T00:00:00.457Z,71.00
2023-05-24T00:02:27.343Z,70.72
2023-05-24T00:04:54.301Z,69.96
2023-05-24T00:07:21.302Z,70.04
2023-05-24T00:09:48.049Z,69.76
2023-05-24T00:12:14.736Z,68.59
2023-05-24T00:14:41.493Z,68.46
2023-05-24T00:17:08.196Z,68.65
2023-05-24T00:19:38.583Z,68.88
2023-05-24T00:22:05.498Z,68.54
2023-05-24T00:24:32.312Z,68.86
2023-05-24T00:26:59.040Z,68.61
2023-05-24T00:29:25.828Z,68.52
2023-05-24T00:31:52.553Z,68.98
2023-05-24T00:34:19.475Z,68.07
2023-05-24T00:36:46.651Z,67.84
2023-05-24T00:39:13.326Z,67.25
2023-05-24T00:41:40.183Z,66.99
2023-05-24T00:44:06.909Z,66.94
2023-05-24T00:46:34.352Z,67.21
2023-05-24T00:49:02.045Z,67.65
2023-05-24T00:51:29.311Z,67.42
2023-05-24T00:53:56.580Z,67.49
2023-05-24T00:56:23.644Z,67.02
2023-05-24T00:58:54.853Z,66.32
2023-05-24T01:01:25.989Z,65.89
2023-05-24T01:03:57.568Z,66.88
2023-05-24T01:06:27.381Z,67.29
2023-05-24T01:09:20.085Z,67.92
2023-05-24T01:12:00.171Z,68.41
2023-05-24T01:14:39.028Z,68.34
2023-05-24T01:17:27.736Z,69.05
2023-05-24T01:20:00.182Z,68.84
2023-05-24T01:23:14.688Z,69.09
2023-05-24T01:25:49.675Z,69.47
2023-05-24T01:28:18.562Z,69.88
2023-05-24T01:30:46.678Z,70.19
2023-05-24T01:33:13.700Z,70.36
2023-05-24T01:35:42.484Z,69.74
2023-05-24T01:38:14.594Z,70.34
2023-05-24T01:40:42.107Z,70.18
2023-05-24T01:43:34.050Z,70.13
2023-05-24T01:46:14.004Z,70.54
2023-05-24T01:49:02.484Z,70.85
2023-05-24T01:51:37.388Z,71.14
2023-05-24T01:54:06.647Z,70.89
2023-05-24T01:56:34.505Z,70.65
2023-05-24T01:59:03.096Z,71.33
2023-05-24T02:04:05.346Z,72.00
2023-05-24T02:06:32.058Z,71.89
2023-05-24T02:08:58.880Z,72.39
2023-05-24T02:11:26.364Z,72.58
2023-05-24T02:13:53.085Z,72.57
2023-05-24T02:16:19.971Z,72.25
2023-05-24T02:18:47.096Z,72.29
2023-05-24T02:21:13.956Z,72.55
2023-05-24T02:23:40.978Z,71.88
2023-05-24T02:26:07.805Z,71.67
2023-05-24T02:28:34.527Z,71.77
2023-05-24T02:31:01.448Z,72.19
2023-05-24T02:36:07.334Z,72.15
2023-05-24T02:38:34.054Z,72.77
2023-05-24T02:41:00.888Z,73.19
2023-05-24T02:43:27.562Z,73.32
2023-05-24T02:45:54.335Z,73.43
2023-05-24T02:48:21.245Z,74.64
2023-05-24T02:50:47.934Z,74.29
2023-05-24T02:53:14.717Z,73.81
2023-05-24T02:55:44.350Z,73.78
2023-05-24T02:58:12.390Z,74.20
2023-05-24T03:00:39.392Z,73.70
2023-05-24T03:03:06.389Z,73.84
2023-05-24T03:05:33.186Z,74.50
2023-05-24T03:07:59.884Z,74.53
2023-05-24T03:10:26.537Z,74.88
2023-05-24T03:12:53.227Z,74.95
2023-05-24T03:15:19.953Z,75.95
2023-05-24T03:17:47.162Z,75.51
2023-05-24T03:20:14.046Z,75.74
2023-05-24T03:22:40.798Z,75.62
2023-05-24T03:27:40.896Z,75.00
2023-05-24T03:30:08.453Z,76.01
2023-05-24T03:32:35.147Z,75.80
2023-05-24T03:35:01.884Z,75.46
2023-05-24T03:37:28.637Z,76.52
2023-05-24T03:39:55.380Z,76.07
2023-05-24T03:42:22.597Z,77.35
2023-05-24T03:44:49.435Z,77.07
2023-05-24T03:47:16.414Z,77.08
2023-05-24T03:49:43.390Z,77.39
2023-05-24T03:52:10.055Z,77.50
2023-05-24T03:54:36.771Z,77.93
2023-05-24T03:57:03.662Z,78.49
2023-05-24T03:59:31.192Z,78.21
2023-05-24T04:01:57.943Z,77.29
2023-05-24T04:04:24.965Z,77.54
2023-05-24T04:06:51.723Z,77.70
2023-05-24T04:09:18.441Z,77.46
2023-05-24T04:11:45.527Z,77.96
2023-05-24T04:14:12.313Z,77.90
2023-05-24T04:19:13.710Z,77.74
2023-05-24T04:21:40.557Z,77.94
2023-05-24T04:24:07.382Z,77.91
2023-05-24T04:26:34.677Z,77.99
2023-05-24T04:29:02.008Z,79.04
2023-05-24T04:31:30.479Z,78.72
2023-05-24T04:33:59.350Z,77.68
2023-05-24T04:36:26.543Z,78.30
2023-05-24T04:38:57.716Z,78.19
2023-05-24T04:41:24.614Z,77.72
2023-05-24T04:43:51.526Z,78.49
2023-05-24T04:46:18.335Z,78.00
2023-05-24T04:48:45.161Z,77.30
2023-05-24T04:51:11.891Z,77.56
2023-05-24T04:53:38.863Z,78.52
2023-05-24T04:56:05.691Z,77.43
2023-05-24T04:58:33.528Z,77.63
2023-05-24T05:01:00.227Z,77.79
2023-05-24T05:03:27.008Z,78.33
2023-05-24T05:05:53.811Z,78.51
2023-05-24T05:08:20.915Z,77.63
2023-05-24T05:10:48.427Z,78.00
2023-05-24T05:15:48.118Z,78.78
2023-05-24T05:18:16.578Z,77.70
2023-05-24T05:20:43.526Z,76.68
2023-05-24T05:23:10.625Z,77.12
2023-05-24T05:25:37.307Z,76.95
2023-05-24T05:28:04.024Z,76.68
2023-05-24T05:30:30.856Z,76.36
2023-05-24T05:32:57.932Z,77.00
2023-05-24T05:35:24.905Z,76.03
2023-05-24T05:37:51.833Z,74.55
2023-05-24T05:40:18.741Z,75.48
2023-05-24T05:42:47.421Z,76.25
2023-05-24T05:45:14.233Z,75.67
2023-05-24T05:47:41.393Z,74.95
2023-05-24T05:50:08.389Z,74.88
2023-05-24T05:52:35.362Z,74.31
2023-05-24T05:55:02.203Z,74.79
2023-05-24T05:57:28.898Z,73.51
2023-05-24T05:59:55.606Z,72.53
2023-05-24T06:02:23.146Z,71.58
2023-05-24T06:04:50.139Z,71.75
2023-05-24T06:07:17.112Z,71.36
2023-05-24T06:09:43.791Z,71.47
2023-05-24T06:12:10.580Z,72.30
2023-05-24T06:14:38.652Z,71.97
2023-05-24T06:17:06.933Z,71.27
2023-05-24T06:19:34.089Z,70.34
2023-05-24T06:22:01.699Z,70.51
2023-05-24T06:24:28.836Z,71.28
2023-05-24T06:26:56.129Z,71.03
2023-05-24T06:29:23.124Z,72.23
2023-05-24T06:31:50.778Z,70.55
2023-05-24T06:36:59.754Z,71.02
2023-05-24T06:39:26.486Z,69.27
2023-05-24T06:41:54.046Z,71.69
2023-05-24T06:44:22.274Z,71.49
2023-05-24T06:46:50.253Z,71.21
2023-05-24T06:49:17.036Z,72.05
2023-05-24T06:51:43.792Z,72.37
2023-05-24T06:54:10.500Z,71.84
2023-05-24T06:56:37.158Z,71.96
2023-05-24T06:59:03.940Z,71.63
2023-05-24T07:01:30.753Z,73.06
2023-05-24T07:03:58.187Z,72.70
2023-05-24T07:06:25.418Z,72.36
2023-05-24T07:08:52.101Z,72.12
2023-05-24T07:11:19.025Z,70.22
2023-05-24T07:13:45.904Z,71.57
2023-05-24T07:16:12.613Z,71.19
2023-05-24T07:18:41.964Z,70.42
2023-05-24T07:21:08.972Z,70.63
2023-05-24T07:23:37.274Z,71.40
2023-05-24T07:26:04.780Z,71.13
2023-05-24T07:28:31.662Z,70.16
2023-05-24T07:30:58.439Z,69.51
2023-05-24T07:33:25.136Z,69.33
2023-05-24T07:35:53.115Z,69.52
2023-05-24T07:38:19.903Z,70.93
2023-05-24T07:40:46.668Z,71.97
2023-05-24T07:43:13.353Z,70.92
2023-05-24T07:45:40.328Z,70.34
2023-05-24T07:48:07.347Z,69.55
2023-05-24T07:50:34.317Z,69.32
2023-05-24T07:53:01.088Z,67.33
2023-05-24T07:55:28.206Z,66.60
2023-05-24T07:57:54.941Z,65.69
2023-05-24T08:00:22.152Z,67.45
2023-05-24T08:02:49.180Z,69.22
2023-05-24T08:05:17.012Z,68.45
2023-05-24T08:07:43.881Z,68.45
2023-05-24T08:10:12.880Z,68.34
2023-05-24T08:12:40.040Z,66.99
2023-05-24T08:15:07.574Z,69.34
2023-05-24T08:17:34.510Z,68.51
2023-05-24T08:20:01.344Z,69.54
2023-05-24T08:22:28.225Z,68.37
2023-05-24T08:24:54.902Z,68.40
2023-05-24T08:27:22.807Z,66.58
2023-05-24T08:29:49.629Z,67.73
2023-05-24T08:32:16.448Z,68.93
2023-05-24T08:34:44.267Z,68.44
2023-05-24T08:37:13.140Z,68.02
2023-05-24T08:39:41.149Z,67.52
2023-05-24T08:42:10.102Z,66.88
2023-05-24T08:44:43.013Z,66.28
2023-05-24T08:47:10.540Z,68.37
2023-05-24T08:49:38.410Z,64.78
2023-05-24T08:52:07.819Z,64.77
2023-05-24T08:54:37.408Z,66.02
2023-05-24T08:59:36.532Z,67.69
2023-05-24T09:02:05.261Z,67.29
2023-05-24T09:07:14.020Z,67.02
2023-05-24T09:09:48.582Z,65.87
2023-05-24T09:12:28.334Z,66.42
2023-05-24T09:15:03.951Z,68.11
2023-05-24T09:17:35.139Z,67.74
2023-05-24T09:20:02.377Z,67.02
2023-05-24T09:22:31.002Z,67.46
2023-05-24T09:25:00.822Z,67.78
2023-05-24T09:27:28.140Z,67.48
2023-05-24T09:29:56.119Z,66.70
2023-05-24T09:32:24.719Z,66.56
2023-05-24T09:37:32.681Z,66.39
2023-05-24T09:40:00.072Z,67.50
2023-05-24T09:45:10.859Z,66.98
2023-05-24T09:47:41.435Z,67.06
2023-05-24T09:50:16.760Z,67.02
2023-05-24T09:52:43.970Z,66.48
2023-05-24T09:55:18.349Z,68.31
2023-05-24T09:57:50.027Z,67.57
2023-05-24T10:00:22.921Z,67.78
2023-05-24T10:03:04.718Z,66.59
2023-05-24T10:05:31.583Z,68.08
2023-05-24T10:07:58.994Z,68.59
2023-05-24T10:10:29.599Z,67.89
2023-05-24T10:13:01.036Z,67.87
2023-05-24T10:15:28.505Z,68.19
2023-05-24T10:17:56.723Z,67.71
2023-05-24T10:20:24.578Z,67.78
2023-05-24T10:23:03.494Z,67.92
2023-05-24T10:25:33.683Z,69.29
2023-05-24T10:28:09.123Z,68.60
2023-05-24T10:30:42.136Z,69.15
2023-05-24T10:33:13.661Z,68.86
2023-05-24T10:38:12.926Z,69.37
2023-05-24T10:40:43.898Z,69.39
2023-05-24T10:45:42.353Z,68.15
2023-05-24T10:48:15.737Z,68.15
2023-05-24T10:50:45.285Z,68.34
2023-05-24T10:53:17.393Z,67.49
2023-05-24T10:55:56.171Z,68.03
2023-05-24T10:58:58.124Z,67.36
2023-05-24T11:01:32.721Z,66.90
2023-05-24T11:04:17.203Z,67.93
2023-05-24T11:06:48.656Z,67.34
2023-05-24T11:09:20.278Z,67.41
2023-05-24T11:11:49.022Z,66.37
2023-05-24T11:14:20.269Z,64.04
2023-05-24T11:16:49.318Z,62.78
2023-05-24T11:19:33.368Z,63.38
2023-05-24T11:24:40.579Z,62.44
2023-05-24T11:27:07.836Z,63.22
2023-05-24T11:29:41.786Z,62.62
2023-05-24T11:32:09.410Z,61.77
2023-05-24T11:34:36.449Z,60.83
2023-05-24T11:37:06.276Z,60.05
2023-05-24T11:39:36.193Z,58.74
2023-05-24T11:42:07.284Z,59.47
2023-05-24T11:44:35.475Z,57.17
2023-05-24T11:47:03.572Z,56.95
2023-05-24T11:49:30.485Z,57.19
2023-05-24T11:51:59.080Z,56.47
2023-05-24T11:54:27.360Z,53.32
2023-05-24T11:56:54.999Z,53.81
2023-05-24T11:59:26.463Z,53.31
2023-05-24T12:02:01.702Z,53.68
2023-05-24T12:04:29.780Z,51.54
2023-05-24T12:09:28.908Z,50.23
2023-05-24T12:11:55.991Z,47.73
2023-05-24T12:14:26.490Z,47.49
2023-05-24T12:16:58.813Z,49.18
2023-05-24T12:19:33.565Z,46.61
2023-05-24T12:22:02.013Z,46.54
2023-05-24T12:24:31.643Z,46.58
2023-05-24T12:27:02.957Z,45.09
2023-05-24T12:29:34.500Z,46.70
2023-05-24T12:32:01.427Z,47.84
2023-05-24T12:34:28.212Z,47.25
2023-05-24T12:36:56.433Z,46.78
2023-05-24T12:42:06.373Z,44.02
2023-05-24T12:44:37.050Z,45.26
2023-05-24T12:47:08.525Z,46.69
2023-05-24T12:49:35.634Z,46.25
2023-05-24T12:52:02.380Z,45.49
2023-05-24T12:54:29.859Z,45.20
2023-05-24T12:56:57.864Z,44.13
2023-05-24T12:59:25.988Z,44.20
2023-05-24T13:01:53.254Z,45.18
2023-05-24T13:04:22.371Z,44.37
2023-05-24T13:06:49.522Z,42.98
2023-05-24T13:09:21.059Z,42.52
2023-05-24T13:11:47.769Z,44.61
2023-05-24T13:14:15.776Z,44.80
2023-05-24T13:16:42.782Z,44.64
2023-05-24T13:19:10.649Z,45.99
2023-05-24T13:21:37.597Z,45.88
2023-05-24T13:24:05.731Z,46.11
2023-05-24T13:26:37.705Z,45.74
2023-05-24T13:31:38.173Z,44.87
2023-05-24T13:34:05.380Z,43.56
2023-05-24T13:36:32.455Z,44.08
2023-05-24T13:39:14.055Z,44.70
2023-05-24T13:41:43.402Z,44.86
2023-05-24T13:44:30.834Z,43.51
2023-05-24T13:46:57.635Z,42.88
2023-05-24T13:49:24.552Z,42.26
2023-05-24T13:51:52.820Z,42.11
2023-05-24T13:54:20.694Z,43.77
2023-05-24T13:56:49.286Z,43.51
2023-05-24T13:59:17.142Z,42.56
2023-05-24T14:01:45.916Z,41.83
2023-05-24T14:04:12.786Z,42.35
2023-05-24T14:06:39.504Z,40.96
2023-05-24T14:09:08.470Z,42.00
2023-05-24T14:11:36.316Z,40.16
2023-05-24T14:16:32.778Z,41.54
2023-05-24T14:18:59.615Z,41.49
2023-05-24T14:21:27.541Z,40.50
2023-05-24T14:23:54.492Z,39.96
2023-05-24T14:26:24.065Z,39.54
2023-05-24T14:28:52.881Z,40.88
2023-05-24T14:31:21.598Z,40.79
2023-05-24T14:33:48.280Z,41.39
2023-05-24T14:36:14.948Z,41.71
2023-05-24T14:38:41.762Z,41.17
2023-05-24T14:41:09.494Z,41.00
2023-05-24T14:46:09.764Z,41.49
2023-05-24T14:48:37.538Z,42.05
2023-05-24T14:51:04.349Z,42.97
2023-05-24T14:53:31.031Z,43.01
2023-05-24T14:55:57.759Z,41.56
2023-05-24T14:58:24.474Z,41.40
2023-05-24T15:00:51.329Z,42.02
2023-05-24T15:03:18.860Z,41.85
2023-05-24T15:05:45.780Z,41.50
2023-05-24T15:08:12.517Z,41.40
2023-05-24T15:10:39.651Z,40.53
2023-05-24T15:13:06.924Z,39.67
2023-05-24T15:15:33.626Z,39.75
2023-05-24T15:18:00.470Z,41.18
2023-05-24T15:20:27.859Z,40.40
2023-05-24T15:22:54.809Z,40.32
2023-05-24T15:25:21.955Z,40.55
2023-05-24T15:27:48.672Z,39.67
2023-05-24T15:30:17.642Z,40.00
2023-05-24T15:32:46.330Z,41.23
2023-05-24T15:37:44.417Z,40.63
2023-05-24T15:40:11.911Z,40.43
2023-05-24T15:42:39.634Z,39.97
2023-05-24T15:45:07.387Z,40.35
2023-05-24T15:47:40.019Z,41.10
2023-05-24T15:50:10.594Z,40.03
2023-05-24T15:52:37.394Z,40.66
2023-05-24T15:55:04.703Z,41.83
2023-05-24T15:57:31.930Z,41.54
2023-05-24T15:59:58.645Z,42.68
2023-05-24T16:02:25.535Z,41.96
2023-05-24T16:04:52.348Z,42.18
2023-05-24T16:07:19.793Z,42.42
2023-05-24T16:09:47.170Z,42.62
2023-05-24T16:12:13.849Z,42.07
2023-05-24T16:14:40.549Z,43.57
2023-05-24T16:19:49.824Z,42.76
2023-05-24T16:22:16.963Z,44.20
2023-05-24T16:24:44.933Z,44.29
2023-05-24T16:27:11.727Z,42.73
2023-05-24T16:29:38.491Z,42.47
2023-05-24T16:32:05.567Z,43.29
2023-05-24T16:34:41.416Z,44.37
2023-05-24T16:37:19.142Z,44.45
2023-05-24T16:39:45.856Z,45.27
2023-05-24T16:42:12.546Z,45.41
2023-05-24T16:44:39.258Z,45.21
2023-05-24T16:47:06.351Z,45.05
2023-05-24T16:49:33.140Z,45.70
2023-05-24T16:51:59.790Z,46.52
2023-05-24T16:54:26.511Z,46.59
2023-05-24T16:56:55.111Z,47.36
2023-05-24T16:59:21.940Z,47.58
2023-05-24T17:04:24.147Z,45.95
2023-05-24T17:06:50.893Z,45.68
2023-05-24T17:09:17.909Z,46.48
2023-05-24T17:11:44.556Z,45.78
2023-05-24T17:14:11.309Z,46.29
2023-05-24T17:16:38.138Z,46.31
2023-05-24T17:19:04.911Z,45.92
2023-05-24T17:21:31.716Z,46.20
2023-05-24T17:24:00.289Z,45.92
2023-05-24T17:26:27.810Z,46.36
2023-05-24T17:28:54.511Z,45.94
2023-05-24T17:31:22.048Z,45.65
2023-05-24T17:33:48.872Z,44.51
2023-05-24T17:36:15.840Z,45.46
2023-05-24T17:38:42.567Z,45.46
2023-05-24T17:41:10.011Z,46.71
2023-05-24T17:43:38.985Z,46.77
2023-05-24T17:46:09.670Z,46.59
2023-05-24T17:48:37.727Z,45.43
2023-05-24T17:51:06.508Z,45.13
2023-05-24T17:53:35.035Z,45.67
2023-05-24T17:56:02.660Z,46.24
2023-05-24T17:58:36.912Z,46.35
2023-05-24T18:01:08.833Z,45.82
2023-05-24T18:03:39.411Z,46.20
2023-05-24T18:06:07.569Z,46.10
2023-05-24T18:08:37.415Z,45.41
2023-05-24T18:11:08.639Z,44.60
2023-05-24T18:13:37.823Z,45.65
2023-05-24T18:16:04.852Z,46.73
2023-05-24T18:18:31.742Z,46.06
2023-05-24T18:20:58.825Z,45.86
2023-05-24T18:23:25.535Z,44.93
2023-05-24T18:28:31.517Z,44.56
2023-05-24T18:30:58.210Z,45.17
2023-05-24T18:33:25.001Z,45.66
2023-05-24T18:35:51.835Z,45.72
2023-05-24T18:38:18.560Z,46.21
2023-05-24T18:40:45.293Z,44.75
2023-05-24T18:43:12.002Z,45.69
2023-05-24T18:45:38.721Z,44.83
2023-05-24T18:48:06.393Z,44.15
2023-05-24T18:50:33.162Z,44.04
2023-05-24T18:53:00.012Z,43.87
2023-05-24T18:55:26.792Z,43.65
2023-05-24T18:57:53.461Z,44.84
2023-05-24T19:00:22.863Z,44.85
2023-05-24T19:05:21.172Z,45.25
2023-05-24T19:07:47.879Z,45.91
2023-05-24T19:10:14.615Z,44.15
2023-05-24T19:12:41.497Z,45.05
2023-05-24T19:15:08.822Z,45.85
2023-05-24T19:17:35.593Z,45.06
2023-05-24T19:20:02.973Z,45.26
2023-05-24T19:22:29.770Z,45.26
2023-05-24T19:24:56.586Z,45.83
2023-05-24T19:27:24.721Z,45.99
2023-05-24T19:29:51.585Z,46.81
2023-05-24T19:34:57.579Z,48.57
2023-05-24T19:37:24.258Z,50.30
2023-05-24T19:39:51.670Z,51.21
2023-05-24T19:42:18.337Z,50.44
2023-05-24T19:44:45.026Z,51.02
2023-05-24T19:47:11.749Z,51.12
2023-05-24T19:49:38.460Z,51.46
2023-05-24T19:52:05.274Z,51.49
2023-05-24T19:54:31.989Z,51.59
2023-05-24T19:57:00.898Z,50.40
2023-05-24T19:59:27.853Z,50.62
2023-05-24T20:01:54.716Z,51.71
2023-05-24T20:04:22.173Z,52.07
2023-05-24T20:06:48.944Z,52.42
2023-05-24T20:09:18.974Z,52.75
2023-05-24T20:11:46.326Z,53.74
2023-05-24T20:14:13.046Z,53.67
2023-05-24T20:16:39.708Z,53.83
2023-05-24T20:19:06.641Z,55.44
2023-05-24T20:21:33.478Z,53.47
2023-05-24T20:24:00.287Z,54.44
2023-05-24T20:26:26.998Z,54.43
2023-05-24T20:28:53.887Z,55.31
2023-05-24T20:31:20.616Z,56.21
2023-05-24T20:33:47.362Z,55.22
2023-05-24T20:36:17.432Z,54.84
2023-05-24T20:38:44.188Z,54.49
2023-05-24T20:41:10.973Z,54.02
2023-05-24T20:43:37.779Z,54.56
2023-05-24T20:46:04.503Z,55.50
2023-05-24T20:48:31.291Z,55.10
2023-05-24T20:50:58.431Z,55.57
2023-05-24T20:53:25.197Z,55.84
2023-05-24T20:55:51.913Z,56.69
2023-05-24T20:58:18.788Z,57.08
2023-05-24T21:00:46.025Z,57.76
2023-05-24T21:03:12.930Z,58.26
2023-05-24T21:05:40.569Z,58.08
2023-05-24T21:08:07.376Z,58.84
2023-05-24T21:10:34.119Z,58.63
2023-05-24T21:13:00.944Z,58.63
2023-05-24T21:18:00.759Z,59.09
2023-05-24T21:20:27.501Z,57.40
2023-05-24T21:22:54.249Z,57.85
2023-05-24T21:25:21.194Z,58.88
2023-05-24T21:27:48.064Z,56.97
2023-05-24T21:30:14.975Z,56.73
2023-05-24T21:32:41.779Z,57.77
2023-05-24T21:35:08.917Z,58.49
2023-05-24T21:37:35.771Z,59.63
2023-05-24T21:40:02.446Z,60.37
2023-05-24T21:42:29.135Z,59.14
2023-05-24T21:44:55.829Z,60.95
2023-05-24T21:47:22.579Z,60.66
2023-05-24T21:49:51.077Z,61.60
2023-05-24T21:52:17.763Z,61.32
2023-05-24T21:54:44.382Z,60.30
2023-05-24T21:57:11.132Z,59.36
2023-05-24T21:59:37.831Z,60.22
2023-05-24T22:02:04.921Z,60.00
2023-05-24T22:04:31.651Z,59.68
2023-05-24T22:06:58.468Z,59.89
2023-05-24T22:11:58.260Z,60.39
2023-05-24T22:14:25.010Z,60.38
2023-05-24T22:16:51.795Z,60.33
2023-05-24T22:19:28.458Z,59.92
2023-05-24T22:22:05.375Z,58.29
2023-05-24T22:24:32.074Z,58.30
2023-05-24T22:27:01.315Z,57.58
2023-05-24T22:29:28.449Z,56.53
2023-05-24T22:31:55.541Z,55.52
2023-05-24T22:34:31.770Z,55.94
2023-05-24T22:36:58.587Z,55.80
2023-05-24T22:39:26.057Z,56.06
2023-05-24T22:41:53.222Z,54.75
2023-05-24T22:44:20.225Z,54.38
2023-05-24T22:46:53.930Z,55.28
2023-05-24T22:49:21.097Z,54.47
2023-05-24T22:51:48.903Z,54.90
2023-05-24T22:54:15.978Z,54.56
2023-05-24T22:56:43.749Z,55.15
2023-05-24T22:59:11.037Z,54.85
2023-05-24T23:01:37.969Z,55.44
2023-05-24T23:04:19.540Z,56.01
2023-05-24T23:06:48.056Z,56.21
2023-05-24T23:09:14.881Z,55.58
2023-05-24T23:11:43.133Z,56.88
2023-05-24T23:14:11.593Z,56.80
2023-05-24T23:16:45.973Z,56.86
2023-05-24T23:19:19.041Z,57.26
2023-05-24T23:21:46.308Z,57.16
2023-05-24T23:24:14.828Z,57.59
2023-05-24T23:26:42.197Z,56.99
2023-05-24T23:29:09.214Z,56.83
2023-05-24T23:31:36.372Z,57.31
2023-05-24T23:34:05.469Z,56.95
2023-05-24T23:39:04.709Z,56.45
2023-05-24T23:41:31.724Z,56.33
2023-05-24T23:43:58.668Z,56.35
2023-05-24T23:46:25.449Z,56.97
2023-05-24T23:48:52.184Z,58.63
2023-05-24T23:51:20.442Z,57.27
2023-05-24T23:53:47.256Z,57.26
2023-05-24T23:56:13.979Z,57.37
2023-05-24T23:58:42.153Z,58.67
